createdAt,value
2023-07-18T00:01:31.036Z,8.07
2023-07-18T00:03:58.702Z,9.35
2023-07-18T00:06:26.260Z,9.93
2023-07-18T00:08:53.751Z,11.75
2023-07-18T00:11:23.634Z,10.43
2023-07-18T00:13:51.390Z,7.60
2023-07-18T00:16:19.150Z,11.13
2023-07-18T00:18:46.787Z,7.85
2023-07-18T00:21:14.356Z,10.40
2023-07-18T00:23:41.647Z,12.00
2023-07-18T00:26:09.935Z,10.63
2023-07-18T00:28:39.080Z,11.00
2023-07-18T00:31:06.911Z,12.30
2023-07-18T00:33:34.248Z,14.25
2023-07-18T00:36:01.683Z,13.10
2023-07-18T00:38:29.291Z,9.73
2023-07-18T00:40:56.626Z,13.63
2023-07-18T00:43:24.019Z,12.65
2023-07-18T00:45:52.420Z,10.75
2023-07-18T00:48:19.739Z,10.95
2023-07-18T00:50:48.914Z,15.80
2023-07-18T00:53:16.473Z,13.00
2023-07-18T00:55:44.369Z,10.60
2023-07-18T00:58:11.984Z,15.65
2023-07-18T01:00:39.545Z,13.88
2023-07-18T01:03:10.955Z,14.77
2023-07-18T01:05:39.061Z,14.07
2023-07-18T01:08:06.517Z,12.70
2023-07-18T01:10:33.854Z,14.18
2023-07-18T01:13:02.176Z,15.07
2023-07-18T01:15:34.852Z,11.23
2023-07-18T01:18:08.398Z,11.45
2023-07-18T01:20:37.517Z,11.95
2023-07-18T01:23:05.517Z,13.35
2023-07-18T01:25:38.143Z,9.32
2023-07-18T01:28:07.815Z,11.60
2023-07-18T01:30:35.541Z,15.40
2023-07-18T01:33:04.596Z,15.68
2023-07-18T01:35:32.000Z,13.50
2023-07-18T01:38:00.089Z,13.05
2023-07-18T01:40:28.509Z,5.63
2023-07-18T01:42:58.775Z,8.38
2023-07-18T01:45:29.326Z,14.63
2023-07-18T01:47:58.149Z,12.05
2023-07-18T01:50:25.704Z,11.32
2023-07-18T01:52:53.294Z,11.75
2023-07-18T01:55:21.351Z,10.13
2023-07-18T01:57:50.622Z,8.38
2023-07-18T02:00:20.826Z,11.95
2023-07-18T02:02:51.621Z,10.57
2023-07-18T02:05:22.325Z,13.48
2023-07-18T02:07:50.919Z,9.77
2023-07-18T02:10:23.003Z,10.10
2023-07-18T02:12:52.824Z,9.88
2023-07-18T02:15:22.633Z,13.75
2023-07-18T02:17:50.793Z,14.07
2023-07-18T02:20:19.876Z,10.73
2023-07-18T02:22:47.972Z,10.93
2023-07-18T02:25:19.545Z,10.35
2023-07-18T02:27:47.705Z,15.13
2023-07-18T02:30:16.214Z,7.32
2023-07-18T02:32:45.065Z,9.52
2023-07-18T02:35:20.510Z,8.30
2023-07-18T02:37:48.868Z,9.37
2023-07-18T02:40:20.293Z,14.15
2023-07-18T02:42:47.909Z,12.35
2023-07-18T02:45:16.137Z,12.63
2023-07-18T02:47:44.433Z,9.63
2023-07-18T02:50:11.928Z,10.30
2023-07-18T02:52:40.433Z,8.48
2023-07-18T02:55:09.556Z,8.98
2023-07-18T02:57:37.376Z,7.95
2023-07-18T03:00:12.483Z,5.80
2023-07-18T03:05:08.649Z,10.32
2023-07-18T03:07:35.975Z,8.68
2023-07-18T03:10:08.122Z,10.80
2023-07-18T03:12:35.509Z,13.27
2023-07-18T03:15:03.630Z,6.50
2023-07-18T03:17:34.132Z,9.68
2023-07-18T03:20:01.644Z,9.50
2023-07-18T03:22:30.825Z,12.25
2023-07-18T03:25:06.738Z,10.63
2023-07-18T03:30:01.330Z,14.60
2023-07-18T03:32:31.292Z,11.00
2023-07-18T03:34:58.986Z,8.00
2023-07-18T03:37:31.491Z,13.57
2023-07-18T03:39:58.859Z,8.23
2023-07-18T03:42:26.224Z,9.18
2023-07-18T03:44:54.188Z,8.60
2023-07-18T03:47:22.845Z,6.10
2023-07-18T03:49:51.453Z,15.60
2023-07-18T03:52:18.761Z,20.75
2023-07-18T03:54:48.416Z,11.45
2023-07-18T03:57:16.107Z,11.60
2023-07-18T03:59:43.455Z,12.25
2023-07-18T04:02:11.159Z,17.90
2023-07-18T04:04:39.720Z,19.92
2023-07-18T04:07:07.591Z,15.73
2023-07-18T04:09:36.015Z,17.20
2023-07-18T04:12:03.623Z,13.48
2023-07-18T04:14:31.318Z,10.23
2023-07-18T04:16:59.903Z,13.23
2023-07-18T04:19:27.589Z,15.18
2023-07-18T04:21:54.966Z,15.35
2023-07-18T04:24:22.739Z,11.77
2023-07-18T04:26:50.150Z,7.70
2023-07-18T04:29:18.134Z,9.18
2023-07-18T04:31:45.959Z,9.95
2023-07-18T04:34:13.353Z,9.60
2023-07-18T04:36:40.667Z,11.07
2023-07-18T04:39:07.996Z,9.07
2023-07-18T04:41:49.472Z,6.97
2023-07-18T04:44:22.220Z,6.60
2023-07-18T04:46:49.826Z,9.25
2023-07-18T04:49:17.713Z,6.07
2023-07-18T04:51:45.310Z,7.60
2023-07-18T04:54:13.636Z,10.05
2023-07-18T04:56:41.329Z,7.85
2023-07-18T04:59:08.796Z,7.15
2023-07-18T05:01:38.165Z,10.93
2023-07-18T05:04:05.774Z,8.05
2023-07-18T05:06:38.373Z,8.38
2023-07-18T05:09:06.979Z,8.18
2023-07-18T05:11:35.563Z,7.95
2023-07-18T05:14:03.556Z,6.18
2023-07-18T05:16:31.664Z,7.25
2023-07-18T05:19:00.282Z,9.73
2023-07-18T05:21:27.564Z,6.75
2023-07-18T05:23:54.886Z,7.75
2023-07-18T05:26:22.826Z,7.47
2023-07-18T05:28:50.064Z,7.70
2023-07-18T05:31:18.618Z,8.18
2023-07-18T05:33:46.298Z,8.98
2023-07-18T05:36:14.052Z,8.18
2023-07-18T05:38:41.592Z,6.93
2023-07-18T05:41:08.820Z,7.63
2023-07-18T05:43:36.148Z,8.07
2023-07-18T05:46:03.458Z,8.35
2023-07-18T05:48:31.946Z,6.72
2023-07-18T05:51:01.360Z,8.07
2023-07-18T05:53:28.789Z,4.20
2023-07-18T05:55:56.543Z,7.38
2023-07-18T05:58:24.098Z,5.25
2023-07-18T06:00:51.766Z,5.63
2023-07-18T06:03:22.284Z,5.75
2023-07-18T06:05:58.899Z,7.30
2023-07-18T06:08:26.140Z,6.70
2023-07-18T06:11:00.666Z,7.45
2023-07-18T06:13:28.208Z,10.18
2023-07-18T06:15:55.698Z,4.43
2023-07-18T06:18:23.269Z,6.65
2023-07-18T06:20:51.399Z,4.53
2023-07-18T06:23:19.051Z,10.30
2023-07-18T06:25:46.588Z,5.40
2023-07-18T06:28:13.909Z,9.57
2023-07-18T06:30:41.309Z,8.43
2023-07-18T06:33:08.850Z,12.35
2023-07-18T06:35:36.485Z,5.43
2023-07-18T06:38:03.943Z,6.85
2023-07-18T06:40:31.623Z,5.25
2023-07-18T06:43:00.617Z,4.32
2023-07-18T06:45:28.046Z,5.05
2023-07-18T06:47:56.050Z,6.50
2023-07-18T06:50:23.272Z,6.25
2023-07-18T06:52:52.976Z,6.68
2023-07-18T06:55:20.337Z,4.07
2023-07-18T06:57:47.605Z,4.15
2023-07-18T07:00:15.628Z,6.97
2023-07-18T07:02:43.191Z,5.43
2023-07-18T07:05:10.576Z,4.40
2023-07-18T07:07:38.625Z,4.95
2023-07-18T07:10:10.351Z,5.68
2023-07-18T07:12:38.306Z,4.00
2023-07-18T07:15:06.273Z,5.20
2023-07-18T07:17:37.689Z,7.30
2023-07-18T07:20:13.909Z,4.97
2023-07-18T07:22:45.445Z,4.22
2023-07-18T07:25:14.663Z,5.47
2023-07-18T07:27:45.228Z,4.25
2023-07-18T07:30:19.679Z,4.50
2023-07-18T07:34:23.642Z,4.90
2023-07-18T07:36:51.972Z,4.68
2023-07-18T07:39:19.783Z,3.78
2023-07-18T07:41:47.108Z,6.43
2023-07-18T07:44:14.352Z,11.27
2023-07-18T07:46:42.660Z,4.75
2023-07-18T07:49:11.076Z,3.72
2023-07-18T07:51:39.063Z,4.25
2023-07-18T07:54:06.400Z,5.85
2023-07-18T07:56:33.747Z,3.88
2023-07-18T07:59:11.123Z,3.95
2023-07-18T08:01:39.802Z,5.65
2023-07-18T08:04:09.920Z,6.10
2023-07-18T08:06:37.262Z,6.07
2023-07-18T08:09:04.612Z,3.80
2023-07-18T08:11:32.081Z,3.42
2023-07-18T08:13:59.596Z,4.47
2023-07-18T08:16:28.527Z,5.78
2023-07-18T08:18:56.058Z,7.65
2023-07-18T08:21:23.351Z,4.20
2023-07-18T08:23:51.174Z,4.57
2023-07-18T08:26:18.506Z,4.38
2023-07-18T08:28:45.985Z,5.63
2023-07-18T08:31:13.498Z,6.22
2023-07-18T08:33:40.921Z,4.03
2023-07-18T08:36:09.243Z,6.45
2023-07-18T08:38:36.760Z,5.25
2023-07-18T08:41:05.034Z,7.03
2023-07-18T08:49:08.526Z,4.65
2023-07-18T08:51:36.288Z,6.20
2023-07-18T08:54:05.046Z,6.68
2023-07-18T08:59:20.034Z,4.00
2023-07-18T09:01:51.664Z,4.90
2023-07-18T09:04:20.303Z,8.45
2023-07-18T09:06:50.583Z,5.50
2023-07-18T09:09:19.647Z,4.75
2023-07-18T09:12:04.651Z,4.40
2023-07-18T09:14:34.292Z,4.35
2023-07-18T09:17:09.668Z,4.25
2023-07-18T09:19:50.154Z,6.20
2023-07-18T09:22:20.616Z,6.57
2023-07-18T09:24:49.421Z,4.72
2023-07-18T09:27:19.235Z,5.90
2023-07-18T09:29:49.471Z,3.95
2023-07-18T09:32:22.080Z,3.80
2023-07-18T09:35:00.828Z,6.88
2023-07-18T09:37:47.197Z,4.82
2023-07-18T09:40:19.744Z,5.15
2023-07-18T09:42:49.328Z,6.13
2023-07-18T09:45:18.368Z,5.50
2023-07-18T09:47:45.957Z,5.53
2023-07-18T09:50:15.049Z,5.07
2023-07-18T09:52:53.525Z,6.55
2023-07-18T09:55:26.125Z,6.13
2023-07-18T09:57:56.968Z,7.13
2023-07-18T10:00:26.626Z,4.55
2023-07-18T10:02:56.393Z,4.45
2023-07-18T10:05:24.795Z,5.35
2023-07-18T10:07:52.608Z,4.35
2023-07-18T10:10:20.742Z,7.05
2023-07-18T10:13:02.501Z,4.38
2023-07-18T10:15:30.436Z,4.40
2023-07-18T10:18:18.496Z,5.47
2023-07-18T10:21:02.265Z,4.53
2023-07-18T10:23:43.585Z,4.73
2023-07-18T10:26:11.112Z,7.63
2023-07-18T10:28:46.601Z,6.10
2023-07-18T10:31:31.573Z,6.13
2023-07-18T10:34:10.806Z,4.80
2023-07-18T10:37:02.173Z,3.22
2023-07-18T10:39:51.098Z,3.92
2023-07-18T10:42:27.828Z,4.78
2023-07-18T10:44:58.017Z,3.63
2023-07-18T10:47:26.741Z,3.47
2023-07-18T10:49:54.686Z,4.25
2023-07-18T10:52:22.760Z,6.07
2023-07-18T10:54:57.604Z,4.25
2023-07-18T10:57:34.333Z,4.80
2023-07-18T11:00:04.758Z,5.45
2023-07-18T11:02:40.329Z,3.38
2023-07-18T11:05:15.375Z,4.80
2023-07-18T11:07:49.229Z,6.03
2023-07-18T11:10:17.534Z,4.55
2023-07-18T11:12:44.989Z,3.28
2023-07-18T11:15:13.791Z,3.65
2023-07-18T11:17:43.774Z,4.00
2023-07-18T11:20:13.473Z,3.95
2023-07-18T11:22:42.182Z,3.33
2023-07-18T11:25:11.984Z,3.42
2023-07-18T11:27:39.545Z,5.35
2023-07-18T11:30:10.773Z,3.63
2023-07-18T11:32:46.905Z,4.25
2023-07-18T11:35:20.538Z,6.57
2023-07-18T11:37:53.325Z,5.00
2023-07-18T11:40:27.394Z,3.00
2023-07-18T11:42:57.728Z,3.28
2023-07-18T11:45:29.625Z,4.35
2023-07-18T11:47:59.626Z,5.32
2023-07-18T11:50:30.564Z,5.28
2023-07-18T11:52:59.991Z,3.35
2023-07-18T11:55:27.904Z,5.00
2023-07-18T11:57:57.205Z,7.20
2023-07-18T12:00:24.579Z,3.70
2023-07-18T12:02:53.717Z,5.60
2023-07-18T12:05:21.606Z,4.53
2023-07-18T12:07:50.423Z,4.38
2023-07-18T12:10:19.623Z,5.05
2023-07-18T12:12:47.255Z,7.07
2023-07-18T12:15:15.557Z,4.28
2023-07-18T12:17:43.057Z,5.38
2023-07-18T12:20:11.753Z,3.92
2023-07-18T12:22:39.389Z,6.57
2023-07-18T12:25:07.128Z,5.60
2023-07-18T12:27:34.717Z,3.90
2023-07-18T12:30:02.287Z,5.45
2023-07-18T12:32:33.529Z,8.60
2023-07-18T12:35:01.601Z,6.35
2023-07-18T12:37:33.196Z,5.22
2023-07-18T12:40:00.739Z,5.65
2023-07-18T12:42:28.490Z,5.68
2023-07-18T12:44:55.913Z,7.47
2023-07-18T12:47:23.809Z,6.70
2023-07-18T12:52:21.961Z,6.22
2023-07-18T12:54:49.416Z,9.00
2023-07-18T12:57:17.173Z,5.25
2023-07-18T12:59:45.033Z,5.65
2023-07-18T13:02:14.814Z,5.38
2023-07-18T13:04:42.645Z,3.80
2023-07-18T13:07:11.325Z,6.45
2023-07-18T13:09:39.857Z,5.10
2023-07-18T13:12:10.900Z,11.00
2023-07-18T13:14:38.502Z,5.55
2023-07-18T13:17:06.487Z,12.63
2023-07-18T13:19:33.785Z,6.57
2023-07-18T13:22:01.321Z,13.35
2023-07-18T13:24:28.832Z,16.35
2023-07-18T13:26:56.942Z,13.93
2023-07-18T13:29:24.229Z,9.45
2023-07-18T13:31:51.753Z,5.93
2023-07-18T13:34:21.008Z,4.45
2023-07-18T13:36:48.464Z,8.30
2023-07-18T13:39:17.040Z,31.25
2023-07-18T13:41:44.636Z,22.38
2023-07-18T13:44:12.237Z,28.60
2023-07-18T13:46:39.567Z,14.10
2023-07-18T13:49:07.101Z,18.08
2023-07-18T13:51:34.714Z,15.75
2023-07-18T13:54:02.324Z,13.55
2023-07-18T13:56:29.858Z,7.90
2023-07-18T13:58:57.598Z,5.90
2023-07-18T14:01:25.024Z,11.30
2023-07-18T14:03:53.406Z,19.02
2023-07-18T14:06:22.488Z,20.88
2023-07-18T14:08:52.756Z,18.67
2023-07-18T14:11:28.326Z,13.98
2023-07-18T14:14:00.261Z,20.67
2023-07-18T14:16:28.082Z,11.95
2023-07-18T14:18:58.010Z,8.45
2023-07-18T14:21:26.295Z,8.70
2023-07-18T14:24:01.282Z,6.93
2023-07-18T14:26:30.317Z,5.53
2023-07-18T14:28:58.259Z,9.20
2023-07-18T14:31:25.977Z,5.45
2023-07-18T14:34:05.370Z,4.97
2023-07-18T14:36:34.016Z,5.93
2023-07-18T14:39:01.486Z,6.63
2023-07-18T14:41:29.861Z,5.35
2023-07-18T14:43:57.582Z,3.97
2023-07-18T14:46:25.219Z,7.88
2023-07-18T14:48:53.572Z,4.32
2023-07-18T14:51:21.698Z,4.88
2023-07-18T14:53:49.337Z,4.43
2023-07-18T14:56:16.738Z,4.18
2023-07-18T14:58:44.228Z,3.05
2023-07-18T15:01:11.542Z,2.38
2023-07-18T15:03:38.994Z,3.90
2023-07-18T15:06:06.569Z,4.00
2023-07-18T15:08:35.275Z,5.05
2023-07-18T15:11:03.706Z,5.07
2023-07-18T15:13:31.262Z,2.72
2023-07-18T15:15:58.594Z,3.88
2023-07-18T15:18:26.125Z,5.50
2023-07-18T15:20:53.438Z,2.65
2023-07-18T15:23:21.710Z,3.60
2023-07-18T15:25:49.235Z,3.80
2023-07-18T15:28:18.484Z,5.57
2023-07-18T15:30:45.852Z,2.40
2023-07-18T15:33:26.685Z,3.63
2023-07-18T15:35:55.634Z,4.43
2023-07-18T15:38:23.142Z,4.97
2023-07-18T15:40:50.527Z,2.10
2023-07-18T15:43:17.704Z,3.30
2023-07-18T15:45:52.354Z,4.82
2023-07-18T15:48:19.859Z,5.97
2023-07-18T15:50:48.693Z,4.95
2023-07-18T15:53:16.341Z,3.15
2023-07-18T15:55:44.119Z,2.80
2023-07-18T15:58:11.539Z,5.97
2023-07-18T16:00:39.668Z,6.45
2023-07-18T16:03:10.141Z,3.30
2023-07-18T16:05:37.839Z,5.00
2023-07-18T16:08:05.441Z,6.18
2023-07-18T16:10:32.840Z,4.40
2023-07-18T16:13:00.252Z,5.78
2023-07-18T16:15:27.616Z,6.03
2023-07-18T16:17:54.873Z,3.78
2023-07-18T16:20:22.151Z,4.97
2023-07-18T16:22:50.402Z,3.67
2023-07-18T16:25:17.917Z,4.40
2023-07-18T16:27:48.008Z,4.75
2023-07-18T16:30:15.654Z,3.78
2023-07-18T16:32:43.299Z,5.07
2023-07-18T16:35:10.843Z,5.13
2023-07-18T16:37:38.275Z,4.40
2023-07-18T16:40:06.776Z,6.38
2023-07-18T16:42:34.339Z,3.22
2023-07-18T16:45:01.838Z,4.38
2023-07-18T16:47:32.760Z,3.20
2023-07-18T16:50:01.645Z,5.90
2023-07-18T16:52:32.325Z,5.03
2023-07-18T16:54:59.767Z,4.68
2023-07-18T16:57:27.195Z,4.93
2023-07-18T16:59:54.611Z,3.53
2023-07-18T17:02:21.955Z,6.65
2023-07-18T17:04:49.603Z,5.20
2023-07-18T17:07:17.560Z,5.60
2023-07-18T17:09:45.154Z,5.45
2023-07-18T17:12:13.761Z,5.57
2023-07-18T17:14:41.064Z,4.25
2023-07-18T17:17:08.832Z,5.78
2023-07-18T17:19:48.225Z,5.28
2023-07-18T17:22:23.542Z,3.30
2023-07-18T17:24:52.078Z,6.13
2023-07-18T17:27:19.617Z,6.00
2023-07-18T17:29:46.937Z,6.45
2023-07-18T17:32:14.586Z,5.15
2023-07-18T17:34:42.461Z,3.20
2023-07-18T17:37:09.761Z,4.20
2023-07-18T17:39:37.386Z,5.50
2023-07-18T17:42:09.743Z,4.90
2023-07-18T17:44:37.633Z,7.55
2023-07-18T17:47:05.550Z,4.25
2023-07-18T17:49:32.972Z,5.00
2023-07-18T17:52:00.218Z,5.88
2023-07-18T17:54:29.045Z,6.07
2023-07-18T17:56:56.431Z,7.22
2023-07-18T17:59:23.995Z,5.65
2023-07-18T18:01:51.394Z,5.95
2023-07-18T18:04:19.574Z,5.53
2023-07-18T18:06:48.285Z,4.40
2023-07-18T18:09:15.508Z,6.13
2023-07-18T18:11:42.843Z,4.38
2023-07-18T18:14:10.162Z,6.78
2023-07-18T18:16:37.697Z,5.07
2023-07-18T18:19:04.902Z,7.10
2023-07-18T18:21:33.372Z,4.88
2023-07-18T18:24:00.680Z,6.55
2023-07-18T18:26:28.169Z,5.63
2023-07-18T18:28:56.105Z,5.88
2023-07-18T18:31:23.969Z,4.32
2023-07-18T18:33:51.953Z,5.45
2023-07-18T18:36:24.212Z,3.85
2023-07-18T18:38:52.697Z,3.92
2023-07-18T18:41:21.533Z,5.32
2023-07-18T18:43:50.837Z,4.95
2023-07-18T18:46:18.644Z,6.70
2023-07-18T18:48:46.074Z,7.05
2023-07-18T18:51:13.531Z,6.20
2023-07-18T18:53:40.926Z,5.63
2023-07-18T18:56:08.620Z,6.63
2023-07-18T18:58:36.801Z,4.90
2023-07-18T19:01:07.437Z,7.03
2023-07-18T19:03:36.000Z,6.43
2023-07-18T19:06:03.691Z,6.38
2023-07-18T19:08:31.038Z,3.90
2023-07-18T19:11:07.390Z,4.72
2023-07-18T19:13:37.215Z,6.90
2023-07-18T19:16:05.132Z,6.47
2023-07-18T19:18:32.453Z,6.43
2023-07-18T19:21:00.004Z,5.80
2023-07-18T19:23:27.642Z,4.80
2023-07-18T19:25:56.410Z,5.93
2023-07-18T19:28:24.681Z,5.45
2023-07-18T19:30:52.167Z,7.75
2023-07-18T19:33:19.404Z,5.68
2023-07-18T19:35:46.828Z,6.80
2023-07-18T19:38:14.190Z,7.68
2023-07-18T19:40:42.482Z,6.80
2023-07-18T19:43:10.321Z,4.55
2023-07-18T19:45:37.688Z,5.30
2023-07-18T19:48:05.738Z,5.85
2023-07-18T19:50:33.233Z,5.95
2023-07-18T19:53:00.862Z,4.93
2023-07-18T19:55:28.635Z,6.72
2023-07-18T19:57:56.950Z,5.45
2023-07-18T20:00:24.559Z,8.52
2023-07-18T20:02:51.920Z,5.95
2023-07-18T20:05:19.257Z,4.75
2023-07-18T20:07:46.770Z,5.03
2023-07-18T20:10:14.353Z,7.35
2023-07-18T20:12:41.709Z,6.57
2023-07-18T20:15:11.689Z,7.40
2023-07-18T20:17:39.066Z,6.53
2023-07-18T20:20:07.508Z,5.43
2023-07-18T20:22:34.867Z,7.10
2023-07-18T20:25:02.160Z,10.40
2023-07-18T20:27:36.995Z,5.85
2023-07-18T20:30:05.815Z,4.80
2023-07-18T20:32:36.532Z,7.18
2023-07-18T20:35:04.125Z,3.90
2023-07-18T20:37:34.155Z,5.25
2023-07-18T20:40:05.626Z,7.25
2023-07-18T20:42:36.644Z,5.80
2023-07-18T20:45:06.202Z,8.80
2023-07-18T20:47:36.387Z,7.50
2023-07-18T20:50:05.033Z,9.88
2023-07-18T20:52:32.628Z,17.48
2023-07-18T20:55:00.062Z,7.03
2023-07-18T20:57:27.411Z,9.32
2023-07-18T20:59:54.810Z,12.65
2023-07-18T21:02:22.260Z,10.10
2023-07-18T21:04:49.966Z,10.20
2023-07-18T21:07:17.521Z,9.52
2023-07-18T21:09:45.528Z,11.35
2023-07-18T21:12:12.767Z,12.10
2023-07-18T21:14:40.222Z,11.88
2023-07-18T21:17:07.461Z,10.20
2023-07-18T21:19:34.688Z,16.70
2023-07-18T21:22:02.321Z,8.95
2023-07-18T21:24:29.661Z,8.50
2023-07-18T21:26:57.597Z,12.27
2023-07-18T21:29:25.467Z,7.18
2023-07-18T21:31:55.723Z,14.90
2023-07-18T21:34:24.532Z,6.32
2023-07-18T21:36:52.103Z,12.15
2023-07-18T21:39:19.427Z,7.63
2023-07-18T21:41:46.795Z,9.18
2023-07-18T21:44:14.312Z,11.77
2023-07-18T21:46:41.722Z,11.05
2023-07-18T21:49:10.184Z,8.73
2023-07-18T21:51:41.342Z,10.50
2023-07-18T21:54:10.410Z,7.15
2023-07-18T21:56:37.835Z,8.65
2023-07-18T21:59:05.250Z,10.88
2023-07-18T22:01:32.722Z,9.07
2023-07-18T22:04:00.401Z,10.43
2023-07-18T22:06:27.832Z,11.25
2023-07-18T22:08:55.357Z,8.68
2023-07-18T22:11:23.039Z,13.23
2023-07-18T22:13:53.606Z,12.23
2023-07-18T22:16:21.016Z,11.63
2023-07-18T22:18:48.544Z,7.60
2023-07-18T22:21:16.307Z,14.05
2023-07-18T22:23:43.678Z,11.27
2023-07-18T22:26:14.551Z,12.75
2023-07-18T22:28:43.719Z,8.05
2023-07-18T22:31:13.290Z,6.13
2023-07-18T22:33:41.303Z,12.93
2023-07-18T22:36:09.377Z,8.70
2023-07-18T22:38:37.058Z,7.15
2023-07-18T22:41:04.641Z,9.88
2023-07-18T22:43:32.160Z,10.00
2023-07-18T22:45:59.449Z,11.27
2023-07-18T22:48:27.091Z,12.07
2023-07-18T22:50:54.335Z,11.90
2023-07-18T22:53:21.983Z,8.88
2023-07-18T22:55:49.839Z,10.90
2023-07-18T22:58:17.925Z,11.38
2023-07-18T23:00:45.227Z,10.60
2023-07-18T23:03:13.822Z,10.15
2023-07-18T23:05:41.719Z,9.43
2023-07-18T23:08:09.139Z,7.57
2023-07-18T23:10:36.429Z,9.43
2023-07-18T23:13:03.869Z,10.75
2023-07-18T23:15:31.431Z,8.13
2023-07-18T23:17:59.098Z,11.23
2023-07-18T23:20:26.552Z,7.82
2023-07-18T23:22:54.600Z,13.20
2023-07-18T23:25:22.083Z,6.55
2023-07-18T23:27:49.580Z,10.35
2023-07-18T23:30:17.100Z,13.60
2023-07-18T23:32:44.738Z,8.50
2023-07-18T23:35:12.344Z,13.35
2023-07-18T23:37:39.988Z,8.93
2023-07-18T23:40:08.202Z,7.57
2023-07-18T23:42:35.542Z,10.88
2023-07-18T23:45:02.866Z,13.30
2023-07-18T23:47:31.759Z,9.48
2023-07-18T23:49:59.745Z,11.07
2023-07-18T23:52:27.439Z,8.68
2023-07-18T23:54:54.814Z,9.20
2023-07-18T23:57:23.143Z,7.88
2023-07-18T23:59:50.792Z,6.85
